Time;durP1;ratioP1;P1;durP2;ratioP2;P2;SDS_P1;SDS_P2;PMS_P1;PMS_P2;Temp;Humidity;BMP_temperature;BMP_pressure;BME280_temperature;BME280_humidity;BME280_pressure;Samples;Min_cycle;Max_cycle;Signal;HPM_P1;HPM_P2
2023/12/25 00:02:19;;;;;;;0.25;0.25;;;;;;;9.36;100.00;98352.96;4932402;56;1136729;-78
2023/12/25 00:07:25;;;;;;;0.67;0.50;;;;;;;9.46;100.00;98351.01;5023154;56;1136726;-77
2023/12/25 00:12:31;;;;;;;1.40;0.50;;;;;;;9.47;100.00;98354.77;5023900;56;1137267;-78
2023/12/25 00:17:36;;;;;;;0.57;0.30;;;;;;;9.48;100.00;98350.32;5024136;56;1137163;-77
2023/12/25 00:22:42;;;;;;;0.83;0.50;;;;;;;9.57;100.00;98367.00;5027563;55;1136726;-78
2023/12/25 00:27:47;;;;;;;1.40;0.40;;;;;;;9.58;100.00;98368.65;4994222;56;1136654;-77
2023/12/25 00:32:53;;;;;;;2.70;0.47;;;;;;;9.60;100.00;98360.90;4994521;56;1136738;-77
2023/12/25 00:37:59;;;;;;;0.73;0.50;;;;;;;9.59;100.00;98372.94;5014953;56;1136733;-78
2023/12/25 00:43:04;;;;;;;1.73;1.00;;;;;;;9.55;100.00;98402.78;4995826;56;1136933;-78
2023/12/25 00:48:10;;;;;;;1.50;0.70;;;;;;;9.53;100.00;98408.22;4992485;56;1136685;-77
2023/12/25 00:53:15;;;;;;;3.50;0.70;;;;;;;9.48;100.00;98406.56;5015010;56;1136870;-77
2023/12/25 00:58:21;;;;;;;4.30;0.68;;;;;;;9.42;100.00;98424.88;4994219;56;1136887;-77
2023/12/25 01:03:27;;;;;;;1.43;0.70;;;;;;;9.34;100.00;98424.34;4994648;56;1136697;-78
2023/12/25 01:08:33;;;;;;;0.50;0.50;;;;;;;9.28;100.00;98432.93;5006261;56;1137245;-79
2023/12/25 01:13:39;;;;;;;0.93;0.50;;;;;;;9.20;100.00;98439.48;5015517;56;1136802;-78
2023/12/25 01:18:45;;;;;;;3.37;1.37;;;;;;;9.11;100.00;98442.61;4995805;57;1136967;-79
2023/12/25 01:23:50;;;;;;;2.60;0.40;;;;;;;9.06;100.00;98433.52;4995915;56;1136948;-78
2023/12/25 01:28:56;;;;;;;2.43;0.47;;;;;;;8.99;100.00;98413.58;5014368;57;1137201;-78
2023/12/25 01:34:01;;;;;;;2.63;0.60;;;;;;;8.93;100.00;98462.97;4911199;58;1137103;-78
2023/12/25 01:39:07;;;;;;;1.60;0.60;;;;;;;8.89;100.00;98472.17;4911475;58;1136675;-78
2023/12/25 01:44:12;;;;;;;3.80;1.25;;;;;;;8.86;100.00;98486.98;4930852;58;1136705;-78
2023/12/25 01:49:18;;;;;;;0.63;0.43;;;;;;;8.86;100.00;98480.92;4911187;58;1136825;-78
2023/12/25 01:54:24;;;;;;;5.00;0.93;;;;;;;8.83;100.00;98474.64;4909895;58;1136899;-78
2023/12/25 01:59:30;;;;;;;0.63;0.60;;;;;;;8.83;100.00;98492.59;4929460;58;1136987;-78
2023/12/25 02:04:35;;;;;;;1.60;0.83;;;;;;;8.81;100.00;98491.43;4993176;57;1181383;-78
2023/12/25 02:09:41;;;;;;;7.77;1.97;;;;;;;8.75;100.00;98502.59;4995673;56;1137078;-78
2023/12/25 02:14:46;;;;;;;3.80;1.32;;;;;;;8.71;100.00;98506.52;4995033;56;1136997;-78
2023/12/25 02:19:53;;;;;;;1.50;0.50;;;;;;;8.66;100.00;98507.49;5015605;56;1136830;-78
2023/12/25 02:25:14;;;;;;;1.70;0.80;;;;;;;8.64;100.00;98511.26;4995586;55;1136803;-78
2023/12/25 02:30:20;;;;;;;5.10;1.17;;;;;;;8.62;100.00;98531.66;4974010;57;1136689;-79
2023/12/25 02:35:25;;;;;;;1.13;0.60;;;;;;;8.62;100.00;98536.45;5014495;58;1136780;-79
2023/12/25 02:40:31;;;;;;;3.37;0.53;;;;;;;8.64;100.00;98546.83;4910903;58;1136458;-79
2023/12/25 02:45:37;;;;;;;5.03;0.78;;;;;;;8.68;100.00;98541.59;4910238;59;1136721;-79
2023/12/25 02:50:42;;;;;;;2.53;1.20;;;;;;;8.69;100.00;98545.40;4910856;57;1136905;-79
2023/12/25 02:55:48;;;;;;;1.50;0.67;;;;;;;8.75;100.00;98551.84;4927316;58;1137005;-79
2023/12/25 03:00:54;;;;;;;1.27;0.50;;;;;;;8.79;100.00;98555.83;4994607;58;1136769;-79
2023/12/25 03:05:59;;;;;;;2.33;0.73;;;;;;;8.81;100.00;98559.97;4995895;56;1136680;-80
2023/12/25 03:11:07;;;;;;;1.95;0.50;;;;;;;8.87;100.00;98576.12;4946667;58;1136948;-79
2023/12/25 03:16:13;;;;;;;3.02;0.60;;;;;;;8.90;100.00;98575.33;4995224;55;1137098;-79
2023/12/25 03:21:21;;;;;;;3.02;0.95;;;;;;;8.89;100.00;98590.80;4915051;57;1137009;-79
2023/12/25 03:26:26;;;;;;;0.73;0.30;;;;;;;8.89;100.00;98601.34;4932576;57;1136920;-79
2023/12/25 03:31:33;;;;;;;4.10;0.80;;;;;;;8.87;100.00;98598.52;4884821;58;1136765;-78
2023/12/25 03:36:39;;;;;;;2.40;0.47;;;;;;;8.87;100.00;98626.20;4862333;59;1136467;-79
2023/12/25 03:41:45;;;;;;;2.27;0.62;;;;;;;8.85;100.00;98620.28;4873829;59;1136655;-79
2023/12/25 03:46:51;;;;;;;0.60;0.43;;;;;;;8.82;100.00;98616.14;4883488;59;1136812;-77
2023/12/25 03:51:58;;;;;;;3.73;0.90;;;;;;;8.79;100.00;98624.35;4892136;57;1136507;-77
2023/12/25 03:57:04;;;;;;;2.80;0.50;;;;;;;8.67;100.00;98642.72;4914518;57;1136612;-77
2023/12/25 04:02:09;;;;;;;4.77;0.63;;;;;;;8.67;100.00;98642.72;4934775;57;1146044;-76
2023/12/25 04:07:16;;;;;;;0.75;0.42;;;;;;;8.61;100.00;98638.88;4914290;57;1137120;-77
2023/12/25 04:12:22;;;;;;;0.88;0.50;;;;;;;8.59;100.00;98638.68;4913423;57;1137073;-77
2023/12/25 04:17:28;;;;;;;5.83;0.80;;;;;;;8.56;100.00;98625.80;5000850;56;1136752;-77
2023/12/25 04:22:33;;;;;;;4.17;0.87;;;;;;;8.57;100.00;98630.09;4994672;55;1136594;-77
2023/12/25 04:27:39;;;;;;;1.27;0.53;;;;;;;8.56;100.00;98615.27;4995494;56;1136707;-77
2023/12/25 04:32:44;;;;;;;3.23;1.13;;;;;;;8.57;100.00;98624.83;5009012;57;1137014;-77
2023/12/25 04:37:50;;;;;;;1.03;0.53;;;;;;;8.53;100.00;98609.02;5031686;57;1136532;-77
2023/12/25 04:42:56;;;;;;;3.80;0.60;;;;;;;8.57;100.00;98621.70;5013418;57;1136744;-77
2023/12/25 04:48:01;;;;;;;1.87;0.67;;;;;;;8.58;100.00;98622.53;5015139;57;1137057;-76
2023/12/25 04:53:08;;;;;;;0.98;0.78;;;;;;;8.59;100.00;98611.02;5042014;57;1144985;-77
2023/12/25 04:58:13;;;;;;;3.42;0.82;;;;;;;8.60;100.00;98627.99;5010571;56;1136814;-76
2023/12/25 05:03:21;;;;;;;2.43;0.90;;;;;;;8.58;100.00;98614.63;5025592;57;1136819;-76
2023/12/25 05:08:27;;;;;;;5.47;1.00;;;;;;;8.59;100.00;98618.43;4949666;58;1137001;-76
2023/12/25 05:13:33;;;;;;;1.50;0.53;;;;;;;8.60;100.00;98631.12;4930509;58;1136641;-76
2023/12/25 05:18:39;;;;;;;2.70;0.70;;;;;;;8.59;100.00;98618.92;5014926;56;1136918;-76
2023/12/25 05:23:44;;;;;;;7.30;1.33;;;;;;;8.63;100.00;98613.69;5035075;56;1136844;-75
2023/12/25 05:28:50;;;;;;;3.00;0.87;;;;;;;8.66;100.00;98619.48;5014157;56;1136506;-77
2023/12/25 05:33:55;;;;;;;2.13;0.50;;;;;;;8.68;100.00;98626.76;5004806;56;1136875;-76
2023/12/25 05:39:01;;;;;;;3.97;0.90;;;;;;;8.71;100.00;98626.91;5015586;58;1136527;-76
2023/12/25 05:44:07;;;;;;;4.87;0.90;;;;;;;8.75;100.00;98639.64;4995850;57;1136600;-76
2023/12/25 05:49:13;;;;;;;2.53;0.73;;;;;;;8.80;100.00;98637.88;4995314;56;1136587;-76
2023/12/25 05:54:18;;;;;;;5.80;1.12;;;;;;;8.82;100.00;98639.87;5016327;56;1136694;-76
2023/12/25 05:59:24;;;;;;;7.72;1.22;;;;;;;8.84;100.00;98642.36;4996649;56;1136701;-76
2023/12/25 06:04:29;;;;;;;3.03;0.90;;;;;;;8.85;100.00;98654.55;4996972;56;1136759;-76
2023/12/25 06:09:35;;;;;;;6.83;1.17;;;;;;;8.88;100.00;98637.91;4997370;56;1136985;-76
2023/12/25 06:14:40;;;;;;;4.80;1.13;;;;;;;8.89;100.00;98625.08;5016235;56;1136663;-76
2023/12/25 06:19:46;;;;;;;6.95;0.85;;;;;;;8.92;100.00;98622.63;4994930;55;1136699;-76
2023/12/25 06:24:52;;;;;;;3.60;0.67;;;;;;;8.94;100.00;98622.81;4995568;56;1136762;-77
2023/12/25 06:29:57;;;;;;;4.30;1.10;;;;;;;8.96;100.00;98612.11;5013353;58;1136650;-77
2023/12/25 06:35:03;;;;;;;3.47;0.80;;;;;;;8.96;100.00;98610.30;4900207;58;1136581;-77
2023/12/25 06:40:09;;;;;;;7.23;1.20;;;;;;;8.94;100.00;98633.84;4953758;57;1136758;-77
2023/12/25 06:45:15;;;;;;;1.95;0.80;;;;;;;8.91;100.00;98634.98;4958224;57;1136641;-76
2023/12/25 06:50:20;;;;;;;4.05;1.10;;;;;;;8.92;100.00;98644.55;4939940;57;1136612;-75
2023/12/25 06:55:26;;;;;;;8.13;1.50;;;;;;;8.91;100.00;98627.07;4939134;57;1136920;-77
2023/12/25 07:00:31;;;;;;;3.40;0.67;;;;;;;8.90;100.00;98637.27;4959161;57;1137009;-74
2023/12/25 07:05:37;;;;;;;4.87;1.20;;;;;;;8.93;100.00;98648.01;4939501;57;1136619;-77
2023/12/25 07:10:44;;;;;;;4.80;1.00;;;;;;;8.93;100.00;98646.69;4939588;58;1136719;-76
2023/12/25 07:15:50;;;;;;;3.83;1.17;;;;;;;8.90;100.00;98658.86;4970440;57;1136629;-76
2023/12/25 07:20:55;;;;;;;1.83;0.80;;;;;;;8.93;100.00;98643.56;4944202;58;1136677;-73
2023/12/25 07:26:01;;;;;;;4.53;1.40;;;;;;;8.89;100.00;98636.11;4943482;57;1136614;-76
2023/12/25 07:31:06;;;;;;;3.30;1.10;;;;;;;8.94;100.00;98641.76;4963339;58;1136610;-75
2023/12/25 07:36:12;;;;;;;3.63;1.03;;;;;;;8.96;100.00;98649.85;4990194;57;1179255;-76
2023/12/25 07:41:17;;;;;;;3.57;1.77;;;;;;;8.99;100.00;98653.50;5024434;56;1136683;-74
2023/12/25 07:46:23;;;;;;;8.35;1.47;;;;;;;9.02;100.00;98662.40;5043677;56;1136791;-73
2023/12/25 07:51:28;;;;;;;4.33;0.80;;;;;;;9.06;100.00;98661.12;5025412;56;1136671;-76
2023/12/25 07:56:34;;;;;;;3.93;1.20;;;;;;;9.04;100.00;98659.61;5025051;56;1136907;-74
2023/12/25 08:01:40;;;;;;;4.22;1.02;;;;;;;9.03;100.00;98656.14;5025245;56;1136805;-75
2023/12/25 08:06:46;;;;;;;3.80;0.70;;;;;;;9.02;100.00;98667.67;5044761;56;1137010;-76
2023/12/25 08:11:52;;;;;;;2.07;0.93;;;;;;;9.05;100.00;98657.31;4995469;57;1136830;-79
2023/12/25 08:16:57;;;;;;;2.37;1.00;;;;;;;9.07;100.00;98658.82;5012682;57;1136615;-76
2023/12/25 08:22:03;;;;;;;4.20;0.80;;;;;;;9.10;100.00;98665.59;5029941;57;1136730;-76
2023/12/25 08:27:08;;;;;;;1.97;0.83;;;;;;;9.11;100.00;98676.48;5010574;57;1136494;-76
2023/12/25 08:32:17;;;;;;;6.13;0.87;;;;;;;9.14;100.00;98682.77;4948296;58;1136635;-80
2023/12/25 08:37:23;;;;;;;3.07;1.83;;;;;;;9.12;100.00;98708.47;5014215;57;1136752;-78
2023/12/25 08:42:28;;;;;;;3.92;1.42;;;;;;;9.07;100.00;98708.09;5012148;57;1136995;-76
2023/12/25 08:47:34;;;;;;;5.37;1.40;;;;;;;9.06;100.00;98717.81;5004982;57;1263769;-80
2023/12/25 08:52:39;;;;;;;7.80;3.40;;;;;;;9.09;100.00;98727.23;4970618;57;1136710;-80
2023/12/25 08:57:45;;;;;;;22.87;7.73;;;;;;;9.11;100.00;98723.95;5011594;57;1136768;-78
2023/12/25 09:02:50;;;;;;;4.93;0.93;;;;;;;9.13;100.00;98724.14;5014540;57;1138559;-82
2023/12/25 09:07:56;;;;;;;4.97;1.57;;;;;;;9.19;100.00;98729.28;4968457;58;1136539;-80
2023/12/25 09:13:02;;;;;;;8.07;2.20;;;;;;;9.22;100.00;98734.25;4843903;58;1136517;-77
2023/12/25 09:18:08;;;;;;;4.70;2.07;;;;;;;9.24;100.00;98738.05;5035348;57;1136443;-79
2023/12/25 09:23:13;;;;;;;8.33;1.13;;;;;;;9.27;100.00;98737.27;5056022;57;1136863;-76
2023/12/25 09:28:19;;;;;;;6.27;1.87;;;;;;;9.36;100.00;98742.09;4970134;58;1136870;-77
2023/12/25 09:33:25;;;;;;;6.30;1.07;;;;;;;9.52;100.00;98748.30;4922876;56;1136690;-79
2023/12/25 09:38:30;;;;;;;5.42;2.00;;;;;;;9.68;100.00;98759.45;5034842;56;1136834;-78
2023/12/25 09:43:42;;;;;;;4.22;1.80;;;;;;;9.79;100.00;98751.25;4978995;57;1136573;-79
2023/12/25 09:48:48;;;;;;;;;;;;;;;9.83;100.00;98772.91;4914595;57;1136582;-76
2023/12/25 09:53:54;;;;;;;1.17;0.70;;;;;;;9.84;100.00;98791.23;4913747;58;973778;-81
2023/12/25 09:59:00;;;;;;;2.87;0.80;;;;;;;9.88;100.00;98784.66;5037184;56;1134796;-78
2023/12/25 10:04:07;;;;;;;2.23;1.30;;;;;;;9.87;100.00;98798.84;5084083;57;1137177;-77
2023/12/25 10:09:13;;;;;;;1.87;1.00;;;;;;;9.88;100.00;98799.67;4915115;58;1136548;-80
2023/12/25 10:14:18;;;;;;;1.43;1.03;;;;;;;9.98;100.00;98804.83;4928675;58;1136859;-75
2023/12/25 10:19:24;;;;;;;2.33;0.87;;;;;;;10.05;100.00;98813.30;5054880;57;1136652;-79
2023/12/25 10:24:30;;;;;;;5.73;1.93;;;;;;;10.24;100.00;98836.02;4968863;56;1138606;-77
2023/12/25 10:29:36;;;;;;;8.63;2.47;;;;;;;10.39;100.00;98852.94;4958651;57;1138969;-79
2023/12/25 10:34:42;;;;;;;8.40;2.00;;;;;;;10.27;100.00;98848.09;5054054;57;1138731;-81
2023/12/25 10:39:47;;;;;;;3.37;1.10;;;;;;;10.11;100.00;98839.07;5000240;56;1138697;-81
2023/12/25 10:44:55;;;;;;;8.78;1.60;;;;;;;10.16;100.00;98844.72;4886606;58;1138586;-76
2023/12/25 10:50:01;;;;;;;5.70;1.23;;;;;;;10.25;100.00;98859.31;5027387;55;1138599;-80
2023/12/25 10:55:08;;;;;;;5.03;1.40;;;;;;;10.23;100.00;98846.29;4911320;58;1138867;-79
2023/12/25 11:00:14;;;;;;;5.20;1.33;;;;;;;10.10;100.00;98867.79;4904434;58;1138762;-80
2023/12/25 11:05:21;;;;;;;6.87;1.20;;;;;;;10.01;100.00;98860.81;4927968;57;1138821;-77
2023/12/25 11:10:28;;;;;;;5.20;1.00;;;;;;;9.97;100.00;98870.03;4916701;56;1138959;-77
2023/12/25 11:15:34;;;;;;;9.93;1.47;;;;;;;9.88;100.00;98851.99;4927403;58;1137175;-80
2023/12/25 11:21:04;;;;;;;6.53;1.33;;;;;;;9.89;100.00;98863.39;4952330;57;1137029;-77
2023/12/25 11:26:17;;;;;;;3.63;1.60;;;;;;;9.97;100.00;98871.84;4970200;56;1136580;-78
2023/12/25 11:31:24;;;;;;;10.70;1.33;;;;;;;10.13;100.00;98864.02;4912101;58;1136618;-75
2023/12/25 11:36:31;;;;;;;10.93;1.90;;;;;;;10.20;100.00;98879.13;4885989;58;1141187;-79
2023/12/25 11:41:37;;;;;;;7.60;1.73;;;;;;;10.17;100.00;98890.46;5034697;57;1140631;-77
2023/12/25 11:46:48;;;;;;;8.03;1.70;;;;;;;10.18;100.00;98892.12;4995122;57;1138542;-78
2023/12/25 11:51:53;;;;;;;7.07;1.87;;;;;;;10.19;100.00;98901.73;4989913;57;1138819;-77
2023/12/25 11:57:02;;;;;;;4.77;1.20;;;;;;;10.18;100.00;98904.88;4984505;58;1138665;-81
2023/12/25 12:02:11;;;;;;;10.60;2.17;;;;;;;10.21;100.00;98906.38;4832025;59;1138721;-77
2023/12/25 12:07:17;;;;;;;8.10;1.53;;;;;;;10.39;100.00;98921.66;4832530;59;1140809;-80
2023/12/25 12:12:23;;;;;;;7.37;1.90;;;;;;;10.58;100.00;98925.39;4851390;59;1138721;-81
2023/12/25 12:17:29;;;;;;;6.43;2.00;;;;;;;10.70;100.00;98948.41;4829554;58;1138629;-76
2023/12/25 12:22:35;;;;;;;3.57;1.20;;;;;;;10.66;100.00;98948.91;4911059;56;1138872;-79
2023/12/25 12:27:41;;;;;;;6.58;1.20;;;;;;;10.38;100.00;98959.67;4931527;57;1138765;-80
2023/12/25 12:32:47;;;;;;;8.63;1.70;;;;;;;10.20;100.00;98972.92;4923656;57;1138923;-73
2023/12/25 12:37:55;;;;;;;6.57;1.40;;;;;;;10.44;100.00;98968.77;4992980;57;1138570;-79
2023/12/25 12:43:00;;;;;;;5.95;1.77;;;;;;;10.36;100.00;98972.70;5010611;57;1138832;-79
2023/12/25 12:48:07;;;;;;;2.07;1.10;;;;;;;10.23;100.00;98982.84;5008346;57;1138932;-81
2023/12/25 12:53:13;;;;;;;2.53;1.17;;;;;;;10.09;100.00;98998.70;4956182;57;1139021;-76
2023/12/25 12:58:18;;;;;;;10.10;2.03;;;;;;;9.98;100.00;99009.52;4867971;59;1138894;-77
2023/12/25 13:03:24;;;;;;;6.03;1.50;;;;;;;10.07;100.00;99009.94;4848271;59;1139032;-75
2023/12/25 13:08:29;;;;;;;4.97;1.50;;;;;;;9.91;100.00;99021.68;4850565;59;1138704;-78
2023/12/25 13:13:35;;;;;;;9.27;2.40;;;;;;;9.72;100.00;99026.61;4852523;57;1136434;-81
2023/12/25 13:18:41;;;;;;;9.50;1.90;;;;;;;9.62;100.00;99039.89;5054926;57;1136751;-78
2023/12/25 13:23:46;;;;;;;5.83;2.00;;;;;;;9.43;100.00;99046.11;5015451;57;1136495;-77
2023/12/25 13:28:52;;;;;;;9.57;2.73;;;;;;;9.31;95.13;99055.20;5014254;57;1136988;-78
2023/12/25 13:33:57;;;;;;;10.43;2.00;;;;;;;9.18;97.65;99063.43;5034666;57;1134730;-76
2023/12/25 13:39:04;;;;;;;10.27;2.43;;;;;;;9.13;99.64;99082.84;4942026;57;1136630;-77
2023/12/25 13:44:10;;;;;;;8.27;2.23;;;;;;;9.05;100.00;99084.52;4956759;58;1134782;-77
2023/12/25 13:49:15;;;;;;;6.33;1.50;;;;;;;8.96;100.00;99085.39;4999333;57;1134645;-76
2023/12/25 13:54:21;;;;;;;6.28;1.30;;;;;;;8.89;100.00;99089.56;5015445;57;1135022;-78
2023/12/25 13:59:26;;;;;;;14.47;3.27;;;;;;;8.86;100.00;99106.50;4986026;57;1134798;-76
2023/12/25 14:04:33;;;;;;;11.50;2.90;;;;;;;8.78;100.00;99124.36;4995698;57;1137106;-76
2023/12/25 14:09:38;;;;;;;11.50;2.70;;;;;;;8.71;100.00;99135.59;5082694;57;1136401;-75
2023/12/25 14:14:44;;;;;;;12.17;3.33;;;;;;;8.63;100.00;99136.80;4986972;57;1136590;-78
2023/12/25 14:19:49;;;;;;;12.37;2.30;;;;;;;8.60;100.00;99151.56;5012947;57;1136745;-80
2023/12/25 14:24:55;;;;;;;15.83;2.27;;;;;;;8.56;100.00;99140.95;5015859;57;1136621;-75
2023/12/25 14:30:01;;;;;;;15.80;3.00;;;;;;;8.51;100.00;99151.92;4949725;57;1136714;-79
2023/12/25 14:35:08;;;;;;;10.70;2.30;;;;;;;8.45;100.00;99158.57;4833575;59;1136832;-77
2023/12/25 14:40:15;;;;;;;12.70;2.70;;;;;;;8.40;100.00;99168.69;4860167;59;1136563;-79
2023/12/25 14:45:20;;;;;;;9.37;2.53;;;;;;;8.31;100.00;99163.39;4957745;57;1136641;-78
2023/12/25 14:50:26;;;;;;;12.57;2.67;;;;;;;8.24;100.00;99175.46;5006286;56;1134302;-77
2023/12/25 14:55:32;;;;;;;18.73;3.60;;;;;;;8.19;100.00;99193.47;5025013;56;1137192;-75
2023/12/25 15:00:37;;;;;;;22.10;5.03;;;;;;;8.13;100.00;99196.98;5044150;57;1136532;-78
2023/12/25 15:05:43;;;;;;;20.33;4.03;;;;;;;8.09;100.00;99206.14;5002255;56;1136798;-80
2023/12/25 15:10:48;;;;;;;24.50;7.40;;;;;;;8.03;100.00;99211.94;5025479;56;1136823;-79
2023/12/25 15:15:54;;;;;;;13.13;3.67;;;;;;;7.98;100.00;99215.92;5043502;56;1136634;-76
2023/12/25 15:21:00;;;;;;;14.50;3.13;;;;;;;7.92;100.00;99211.22;5015260;57;1136711;-76
2023/12/25 15:26:05;;;;;;;12.90;3.17;;;;;;;7.85;100.00;99220.59;5014970;57;1136771;-78
2023/12/25 15:31:11;;;;;;;15.00;4.37;;;;;;;7.74;100.00;99230.75;4963057;57;1136922;-76
2023/12/25 15:36:24;;;;;;;18.07;9.33;;;;;;;7.71;100.00;99242.85;4936140;58;1136645;-79
2023/12/25 15:41:30;;;;;;;11.35;2.95;;;;;;;7.67;100.00;99246.70;4979361;57;1136370;-79
2023/12/25 15:46:37;;;;;;;13.05;4.25;;;;;;;7.62;100.00;99265.53;4930042;58;1136781;-77
2023/12/25 15:51:42;;;;;;;13.25;3.22;;;;;;;7.57;100.00;99275.61;4899426;57;1136799;-77
2023/12/25 15:56:48;;;;;;;19.37;4.10;;;;;;;7.51;100.00;99280.55;4870249;58;1136783;-80
2023/12/25 16:01:53;;;;;;;11.87;2.93;;;;;;;7.48;100.00;99290.03;4911412;56;1136877;-80
2023/12/25 16:06:59;;;;;;;12.70;2.67;;;;;;;7.44;100.00;99302.61;4934751;57;1136765;-76
2023/12/25 16:12:05;;;;;;;10.53;2.23;;;;;;;7.44;100.00;99318.88;4938367;57;1136787;-78
2023/12/25 16:17:10;;;;;;;14.50;3.27;;;;;;;7.41;100.00;99324.73;5003616;57;1136795;-79
2023/12/25 16:22:16;;;;;;;14.33;3.22;;;;;;;7.40;100.00;99332.27;4982204;57;1136830;-78
2023/12/25 16:27:21;;;;;;;13.43;3.40;;;;;;;7.37;100.00;99333.00;4848401;58;1136636;-79
2023/12/25 16:32:27;;;;;;;17.33;3.37;;;;;;;7.35;100.00;99339.70;4830513;59;1136720;-78
2023/12/25 16:37:32;;;;;;;16.23;2.87;;;;;;;7.30;100.00;99343.69;4840682;59;1136823;-76
2023/12/25 16:42:40;;;;;;;14.33;3.57;;;;;;;7.22;100.00;99350.05;4911377;58;1136914;-81
2023/12/25 16:47:50;;;;;;;16.13;3.60;;;;;;;7.17;100.00;99352.24;5042749;56;1136604;-80
2023/12/25 16:52:56;;;;;;;14.93;4.13;;;;;;;7.09;100.00;99357.28;5004697;56;1136660;-82
2023/12/25 16:58:02;;;;;;;12.47;3.80;;;;;;;7.03;100.00;99367.32;4951565;56;1136573;-80
2023/12/25 17:03:07;;;;;;;19.10;5.97;;;;;;;7.02;100.00;99368.79;4912023;58;1136877;-80
2023/12/25 17:08:13;;;;;;;10.03;3.60;;;;;;;6.96;100.00;99378.47;4944470;57;1136674;-80
2023/12/25 17:13:19;;;;;;;11.70;2.50;;;;;;;6.91;100.00;99393.77;4948931;57;1137226;-82
2023/12/25 17:18:25;;;;;;;8.43;1.73;;;;;;;6.91;100.00;99395.92;4947599;57;1137030;-84
2023/12/25 17:23:31;;;;;;;7.90;2.47;;;;;;;6.91;100.00;99407.75;4991841;57;1134869;-80
2023/12/25 17:28:36;;;;;;;7.37;1.87;;;;;;;6.93;100.00;99411.09;4953696;56;1134752;-80
2023/12/25 17:33:42;;;;;;;12.55;3.12;;;;;;;6.94;100.00;99406.67;4973266;57;1134732;-80
2023/12/25 17:38:47;;;;;;;13.83;3.13;;;;;;;6.93;100.00;99415.03;4982416;57;1136673;-81
2023/12/25 17:43:54;;;;;;;12.47;2.37;;;;;;;6.91;100.00;99420.05;5005792;56;1136636;-79
2023/12/25 17:48:59;;;;;;;12.87;2.80;;;;;;;6.90;100.00;99432.84;4916426;58;1136982;-78
2023/12/25 17:54:05;;;;;;;10.97;2.13;;;;;;;6.82;100.00;99440.03;4929655;58;1136707;-82
2023/12/25 17:59:11;;;;;;;16.87;3.50;;;;;;;6.83;100.00;99445.65;5015364;57;1136915;-80
2023/12/25 18:04:16;;;;;;;17.77;3.52;;;;;;;6.76;100.00;99452.33;5040134;56;1136629;-80
2023/12/25 18:09:22;;;;;;;15.88;4.20;;;;;;;6.68;100.00;99446.38;5010033;56;1136905;-80
2023/12/25 18:14:28;;;;;;;11.00;2.10;;;;;;;6.66;100.00;99462.73;4997580;56;1137037;-80
2023/12/25 18:19:34;;;;;;;13.83;2.42;;;;;;;6.62;100.00;99465.23;4941996;57;1136991;-79
2023/12/25 18:24:39;;;;;;;12.57;2.80;;;;;;;6.63;100.00;99477.42;4959058;57;1136986;-79
2023/12/25 18:29:45;;;;;;;13.63;2.23;;;;;;;6.62;100.00;99478.85;4939187;57;1136793;-81
2023/12/25 18:34:50;;;;;;;11.40;2.50;;;;;;;6.62;100.00;99494.14;4994904;57;1136674;-83
2023/12/25 18:39:57;;;;;;;13.13;2.77;;;;;;;6.67;100.00;99488.53;5046523;57;1136928;-77
2023/12/25 18:45:02;;;;;;;19.00;3.50;;;;;;;6.67;100.00;99513.02;5023631;57;1244546;-81
2023/12/25 18:50:08;;;;;;;13.73;2.80;;;;;;;6.65;100.00;99516.72;5016988;57;1136979;-80
2023/12/25 18:55:14;;;;;;;17.42;2.75;;;;;;;6.66;100.00;99525.80;5017739;57;1136977;-81
2023/12/25 19:00:20;;;;;;;11.57;2.87;;;;;;;6.62;100.00;99522.20;4937115;57;1137060;-77
2023/12/25 19:05:25;;;;;;;11.70;3.30;;;;;;;6.61;100.00;99520.05;4869204;58;1136960;-77
2023/12/25 19:10:31;;;;;;;21.83;4.30;;;;;;;6.63;100.00;99531.75;4929697;57;1136878;-83
2023/12/25 19:15:37;;;;;;;14.40;2.50;;;;;;;6.57;100.00;99523.86;4962820;57;1136820;-78
2023/12/25 19:20:42;;;;;;;15.90;2.77;;;;;;;6.54;100.00;99527.22;4932873;58;1136953;-75
2023/12/25 19:25:48;;;;;;;17.60;3.08;;;;;;;6.51;100.00;99524.34;4941362;57;1136856;-78
2023/12/25 19:30:54;;;;;;;25.10;3.77;;;;;;;6.45;100.00;99527.43;4968641;57;1136544;-78
2023/12/25 19:36:00;;;;;;;9.70;2.30;;;;;;;6.43;100.00;99522.77;4930829;57;1136683;-82
2023/12/25 19:41:06;;;;;;;12.50;2.43;;;;;;;6.40;100.00;99536.16;4901341;57;1134795;-84
2023/12/25 19:46:12;;;;;;;18.87;4.20;;;;;;;6.35;100.00;99536.50;4944894;58;1136526;-78
2023/12/25 19:51:18;;;;;;;14.87;4.58;;;;;;;6.30;100.00;99532.06;4928446;57;1136794;-83
2023/12/25 19:56:23;;;;;;;23.95;6.00;;;;;;;6.24;100.00;99549.61;4908596;57;1136858;-80
2023/12/25 20:01:29;;;;;;;15.45;3.40;;;;;;;6.17;100.00;99557.56;5011168;56;1137013;-76
2023/12/25 20:06:34;;;;;;;12.90;3.13;;;;;;;6.13;100.00;99563.16;5006431;56;1136836;-81
2023/12/25 20:11:40;;;;;;;20.00;4.47;;;;;;;6.06;100.00;99571.14;5009168;57;1136556;-80
2023/12/25 20:16:45;;;;;;;13.15;3.42;;;;;;;6.04;100.00;99575.19;5026185;56;1136880;-78
2023/12/25 20:21:51;;;;;;;11.80;2.80;;;;;;;6.02;100.00;99592.83;4885989;58;1136620;-78
2023/12/25 20:27:02;;;;;;;14.40;2.97;;;;;;;5.96;100.00;99597.20;4931551;57;1136679;-78
2023/12/25 20:32:04;;;;;;;10.40;2.70;;;;;;;5.91;100.00;99594.94;5032797;57;1136933;-79
2023/12/25 20:37:10;;;;;;;23.30;3.83;;;;;;;5.89;100.00;99579.78;4884143;57;1136871;-77
2023/12/25 20:42:15;;;;;;;15.60;3.00;;;;;;;5.84;100.00;99576.61;4913851;58;1136851;-83
2023/12/25 20:47:21;;;;;;;12.37;2.90;;;;;;;5.84;100.00;99571.84;4876854;58;1136782;-77
2023/12/25 20:52:27;;;;;;;23.30;3.33;;;;;;;5.84;100.00;99578.39;4966015;57;1136921;-80
2023/12/25 20:57:32;;;;;;;13.43;2.90;;;;;;;5.83;100.00;99576.24;4911833;57;1136869;-80
2023/12/25 21:02:38;;;;;;;14.43;4.20;;;;;;;5.85;100.00;99594.03;5000704;56;1136927;-76
2023/12/25 21:07:43;;;;;;;12.03;2.62;;;;;;;5.89;100.00;99595.52;5001031;58;1137069;-77
2023/12/25 21:12:49;;;;;;;16.97;3.67;;;;;;;5.94;100.00;99588.64;4990882;57;1136741;-80
2023/12/25 21:17:55;;;;;;;21.03;6.13;;;;;;;5.98;100.00;99592.21;4996767;56;1136595;-79
2023/12/25 21:23:01;;;;;;;10.87;2.80;;;;;;;6.02;100.00;99591.99;5015383;56;1136768;-78
2023/12/25 21:28:06;;;;;;;14.67;3.23;;;;;;;6.06;100.00;99591.66;4997706;56;1136817;-78
2023/12/25 21:33:14;;;;;;;15.70;3.63;;;;;;;6.06;100.00;99580.33;4996884;56;1136638;-78
2023/12/25 21:38:20;;;;;;;16.47;2.80;;;;;;;6.04;100.00;99586.16;5016093;56;1136966;-79
2023/12/25 21:43:25;;;;;;;16.57;2.97;;;;;;;6.04;100.00;99598.81;4912014;57;1137004;-78
2023/12/25 21:48:31;;;;;;;19.33;3.27;;;;;;;6.01;100.00;99605.59;4912021;57;1136601;-78
2023/12/25 21:53:36;;;;;;;16.73;3.30;;;;;;;5.99;100.00;99587.33;4911352;57;1136590;-78
2023/12/25 21:58:42;;;;;;;19.83;3.10;;;;;;;5.97;100.00;99574.78;4931734;58;1136803;-78
2023/12/25 22:03:47;;;;;;;17.25;3.00;;;;;;;5.97;100.00;99574.78;4911832;57;1136614;-78
2023/12/25 22:08:53;;;;;;;53.75;12.90;;;;;;;5.95;100.00;99573.25;4909900;57;1136703;-78
2023/12/25 22:13:59;;;;;;;72.57;13.97;;;;;;;5.91;100.00;99574.42;5012129;57;1138620;-78
2023/12/25 22:19:04;;;;;;;21.73;5.30;;;;;;;5.82;100.00;99587.69;4996086;56;1138970;-78
2023/12/25 22:24:10;;;;;;;35.20;8.97;;;;;;;5.77;100.00;99590.30;4997838;56;1136547;-78
2023/12/25 22:29:15;;;;;;;42.60;11.03;;;;;;;5.73;100.00;99580.97;5016314;56;1136691;-77
2023/12/25 22:34:21;;;;;;;35.70;9.63;;;;;;;5.67;100.00;99583.55;4995018;56;1138958;-78
2023/12/25 22:39:26;;;;;;;26.17;7.80;;;;;;;5.60;100.00;99584.48;4907669;57;1136878;-78
2023/12/25 22:44:32;;;;;;;37.30;10.55;;;;;;;5.58;100.00;99589.47;4912002;57;1138623;-78
2023/12/25 22:49:37;;;;;;;42.27;10.60;;;;;;;5.54;100.00;99593.25;4930682;57;1139070;-77
2023/12/25 22:55:13;;;;;;;32.23;12.45;;;;;;;5.51;100.00;99600.86;4905454;57;1138571;-78
2023/12/25 23:00:28;;;;;;;17.53;6.30;;;;;;;5.50;100.00;99599.19;4890840;57;1140916;-78
2023/12/25 23:05:26;;;;;;;24.60;8.43;;;;;;;5.48;100.00;99594.55;5005876;56;1138704;-77
2023/12/25 23:10:32;;;;;;;16.87;7.07;;;;;;;5.47;100.00;99595.49;4995798;56;1139018;-78
2023/12/25 23:15:37;;;;;;;20.20;5.05;;;;;;;5.45;100.00;99587.37;5034916;56;1136494;-77
2023/12/25 23:20:43;;;;;;;14.57;3.60;;;;;;;5.43;100.00;99595.81;5099685;56;1136411;-78